Time;durP1;ratioP1;P1;durP2;ratioP2;P2;SDS_P1;SDS_P2;PMS_P1;PMS_P2;Temp;Humidity;BMP_temperature;BMP_pressure;BME280_temperature;BME280_humidity;BME280_pressure;Samples;Min_cycle;Max_cycle;Signal;HPM_P1;HPM_P2
2023/09/10 00:00:50;;;;;;;6.88;6.28;;;;;;;;;;5001915;28;20260;-89
2023/09/10 00:03:16;;;;;;;7.82;6.85;;;;;;;;;;5032024;28;20219;-89
2023/09/10 00:05:41;;;;;;;7.82;7.07;;;;;;;;;;4990581;28;20335;-88
2023/09/10 00:08:09;;;;;;;8.60;6.68;;;;;;;;;;5005479;28;20993;-88
2023/09/10 00:10:34;;;;;;;7.32;6.63;;;;;;;;;;5015450;28;20219;-89
2023/09/10 00:13:00;;;;;;;8.07;7.38;;;;;;;;;;5000715;28;20219;-89
2023/09/10 00:15:25;;;;;;;7.47;6.78;;;;;;;;;;5019008;28;20215;-89
2023/09/10 00:17:52;;;;;;;7.40;6.45;;;;;;;;;;5008173;28;20220;-88
2023/09/10 00:20:18;;;;;;;7.70;7.10;;;;;;;;;;5012146;28;20216;-89
2023/09/10 00:22:43;;;;;;;6.88;6.38;;;;;;;;;;5011394;28;20293;-88
2023/09/10 00:25:09;;;;;;;7.50;6.68;;;;;;;;;;5034813;28;20226;-87
2023/09/10 00:27:35;;;;;;;7.22;6.63;;;;;;;;;;4990981;28;20232;-89
2023/09/10 00:30:01;;;;;;;6.95;6.30;;;;;;;;;;4999361;28;20227;-89
2023/09/10 00:32:26;;;;;;;7.70;6.95;;;;;;;;;;5012471;28;20222;-88
2023/09/10 00:34:52;;;;;;;6.75;6.15;;;;;;;;;;4991947;28;20215;-89
2023/09/10 00:37:19;;;;;;;6.43;5.93;;;;;;;;;;5011815;28;20208;-89
2023/09/10 00:39:45;;;;;;;7.78;6.70;;;;;;;;;;5004820;28;20339;-89
2023/09/10 00:42:13;;;;;;;6.88;6.28;;;;;;;;;;5013413;28;20223;-88
2023/09/10 00:44:41;;;;;;;7.82;7.22;;;;;;;;;;5011222;28;20679;-89
2023/09/10 00:47:06;;;;;;;7.20;6.60;;;;;;;;;;5005587;28;20216;-88
2023/09/10 00:49:32;;;;;;;7.05;6.43;;;;;;;;;;5013491;28;20224;-88
2023/09/10 00:52:01;;;;;;;7.40;6.90;;;;;;;;;;5020990;28;20219;-88
2023/09/10 00:54:32;;;;;;;7.82;7.32;;;;;;;;;;4999274;28;20592;-89
2023/09/10 00:57:00;;;;;;;8.27;7.68;;;;;;;;;;5002717;28;20349;-88
2023/09/10 00:59:28;;;;;;;8.43;7.65;;;;;;;;;;5012946;28;20273;-88
2023/09/10 01:01:54;;;;;;;7.45;6.85;;;;;;;;;;5013388;28;20228;-88
2023/09/10 01:04:19;;;;;;;7.90;7.30;;;;;;;;;;5002968;28;20742;-88
2023/09/10 01:06:45;;;;;;;8.15;7.45;;;;;;;;;;5020471;28;20219;-88
2023/09/10 01:09:10;;;;;;;7.30;6.68;;;;;;;;;;4999705;28;20223;-89
2023/09/10 01:11:51;;;;;;;7.95;7.25;;;;;;;;;;5031294;28;20215;-89
2023/09/10 01:14:26;;;;;;;7.32;6.72;;;;;;;;;;5031853;28;20238;-89
2023/09/10 01:17:02;;;;;;;7.47;6.78;;;;;;;;;;5035847;28;20690;-89
2023/09/10 01:19:52;;;;;;;7.53;6.88;;;;;;;;;;5018832;28;20228;-88
2023/09/10 01:22:32;;;;;;;7.13;6.45;;;;;;;;;;5052228;28;20277;-88
2023/09/10 01:24:57;;;;;;;6.90;6.30;;;;;;;;;;5019248;28;20222;-88
2023/09/10 01:27:23;;;;;;;6.93;6.32;;;;;;;;;;5002006;28;20229;-89
2023/09/10 01:29:49;;;;;;;6.28;5.75;;;;;;;;;;5019383;28;20680;-88
2023/09/10 01:32:20;;;;;;;6.20;5.70;;;;;;;;;;5018228;28;20223;-88
2023/09/10 01:34:49;;;;;;;7.65;6.55;;;;;;;;;;4997614;28;20215;-89
2023/09/10 01:37:25;;;;;;;6.22;5.65;;;;;;;;;;5002526;28;20219;-88
2023/09/10 01:39:51;;;;;;;6.03;5.47;;;;;;;;;;5016874;28;20219;-89
2023/09/10 01:42:17;;;;;;;5.68;5.28;;;;;;;;;;5027719;28;20229;-89
2023/09/10 01:44:42;;;;;;;6.60;6.00;;;;;;;;;;5001297;28;20216;-88
2023/09/10 01:47:08;;;;;;;6.60;6.03;;;;;;;;;;5018325;28;20647;-88
2023/09/10 01:49:34;;;;;;;7.60;6.10;;;;;;;;;;5004486;28;20222;-89
2023/09/10 01:52:00;;;;;;;6.13;5.57;;;;;;;;;;4999203;28;20656;-89
2023/09/10 01:54:25;;;;;;;6.90;6.30;;;;;;;;;;5001889;28;20281;-88
2023/09/10 01:56:51;;;;;;;6.60;6.03;;;;;;;;;;5001120;28;20277;-89
2023/09/10 01:59:16;;;;;;;6.20;5.70;;;;;;;;;;5017847;28;20242;-88
2023/09/10 02:01:42;;;;;;;6.75;6.25;;;;;;;;;;5000661;28;20224;-88
2023/09/10 02:04:08;;;;;;;6.53;5.97;;;;;;;;;;5015893;28;20232;-88
2023/09/10 02:06:33;;;;;;;6.53;5.93;;;;;;;;;;5002856;28;20223;-88
2023/09/10 02:08:59;;;;;;;6.70;6.10;;;;;;;;;;5016389;28;20282;-89
2023/09/10 02:11:27;;;;;;;7.10;6.40;;;;;;;;;;5020167;28;20223;-89
2023/09/10 02:13:53;;;;;;;6.80;6.30;;;;;;;;;;5019059;28;20292;-88
2023/09/10 02:16:19;;;;;;;5.60;5.20;;;;;;;;;;4998729;28;20227;-88
2023/09/10 02:18:45;;;;;;;6.53;5.95;;;;;;;;;;5012969;28;20267;-88
2023/09/10 02:21:13;;;;;;;6.13;5.63;;;;;;;;;;5018177;28;20227;-88
2023/09/10 02:23:42;;;;;;;8.13;5.65;;;;;;;;;;5007670;28;20868;-88
2023/09/10 02:26:08;;;;;;;6.28;5.78;;;;;;;;;;5020388;28;20223;-88
2023/09/10 02:28:34;;;;;;;6.13;5.63;;;;;;;;;;5021367;28;20290;-88
2023/09/10 02:31:08;;;;;;;6.15;5.55;;;;;;;;;;5016045;28;20226;-88
2023/09/10 02:33:34;;;;;;;5.78;5.25;;;;;;;;;;5000800;28;20230;-88
2023/09/10 02:36:00;;;;;;;6.13;5.47;;;;;;;;;;5014104;28;20301;-88
2023/09/10 02:38:27;;;;;;;5.85;5.38;;;;;;;;;;5014093;28;20244;-88
2023/09/10 02:40:54;;;;;;;5.97;5.45;;;;;;;;;;4995439;28;20615;-89
2023/09/10 02:43:20;;;;;;;5.60;5.10;;;;;;;;;;5027708;28;20228;-88
2023/09/10 02:45:46;;;;;;;5.85;5.38;;;;;;;;;;4998278;28;20278;-88
2023/09/10 02:48:11;;;;;;;6.28;5.68;;;;;;;;;;5015356;28;20227;-88
2023/09/10 02:50:37;;;;;;;5.95;5.40;;;;;;;;;;4998660;28;20230;-89
2023/09/10 02:53:03;;;;;;;6.10;5.57;;;;;;;;;;5014739;28;20246;-88
2023/09/10 02:55:29;;;;;;;5.85;5.45;;;;;;;;;;5014070;28;20220;-88
2023/09/10 02:57:56;;;;;;;5.63;5.22;;;;;;;;;;5000838;28;20223;-88
2023/09/10 03:00:25;;;;;;;6.95;6.35;;;;;;;;;;5027613;28;20223;-88
2023/09/10 03:02:53;;;;;;;6.07;5.65;;;;;;;;;;5014385;28;20223;-88
2023/09/10 03:05:24;;;;;;;6.13;5.72;;;;;;;;;;5014693;28;20323;-88
2023/09/10 03:07:55;;;;;;;6.28;5.75;;;;;;;;;;4996467;28;20224;-88
2023/09/10 03:10:21;;;;;;;6.88;6.28;;;;;;;;;;5026062;28;20212;-88
2023/09/10 03:12:46;;;;;;;6.13;5.65;;;;;;;;;;5012300;28;20207;-88
2023/09/10 03:15:13;;;;;;;5.88;5.32;;;;;;;;;;5014716;28;20222;-88
2023/09/10 03:17:39;;;;;;;5.63;5.10;;;;;;;;;;4986874;28;20766;-88
2023/09/10 03:20:09;;;;;;;5.45;5.05;;;;;;;;;;5013454;28;20224;-88
2023/09/10 03:22:37;;;;;;;7.32;5.88;;;;;;;;;;5013043;28;20222;-88
2023/09/10 03:25:02;;;;;;;4.90;4.50;;;;;;;;;;4998956;28;20219;-88
2023/09/10 03:27:29;;;;;;;5.07;4.68;;;;;;;;;;5025296;28;20230;-88
2023/09/10 03:29:55;;;;;;;5.43;5.03;;;;;;;;;;5014971;28;20584;-87
2023/09/10 03:32:20;;;;;;;6.35;5.85;;;;;;;;;;5017439;28;20207;-87
2023/09/10 03:34:47;;;;;;;7.20;6.55;;;;;;;;;;5015182;28;20689;-88
2023/09/10 03:37:13;;;;;;;7.90;6.50;;;;;;;;;;5011694;28;20716;-88
2023/09/10 03:39:41;;;;;;;7.78;7.07;;;;;;;;;;5011365;28;20220;-87
2023/09/10 03:42:10;;;;;;;7.75;7.15;;;;;;;;;;5031665;28;20216;-88
2023/09/10 03:44:36;;;;;;;8.25;7.65;;;;;;;;;;5017153;28;20251;-88
2023/09/10 03:47:04;;;;;;;7.50;6.95;;;;;;;;;;5001027;28;20607;-87
2023/09/10 03:49:33;;;;;;;7.78;7.18;;;;;;;;;;5002390;28;20215;-88
2023/09/10 03:52:03;;;;;;;8.18;7.47;;;;;;;;;;5019196;28;20315;-88
2023/09/10 03:54:29;;;;;;;9.05;5.88;;;;;;;;;;5019685;28;20231;-88
2023/09/10 03:56:54;;;;;;;6.50;5.95;;;;;;;;;;5003249;28;20212;-88
2023/09/10 03:59:22;;;;;;;7.07;6.50;;;;;;;;;;5013533;28;20227;-88
2023/09/10 04:05:35;;;;;;;6.82;6.07;;;;;;;;;;5031272;28;20246;-88
2023/09/10 04:08:00;;;;;;;6.53;5.95;;;;;;;;;;5008223;28;20217;-88
2023/09/10 04:10:27;;;;;;;6.50;6.00;;;;;;;;;;5006658;28;20221;-88
2023/09/10 04:12:52;;;;;;;6.38;5.82;;;;;;;;;;5015333;28;20285;-87
2023/09/10 04:15:18;;;;;;;12.20;6.22;;;;;;;;;;5007751;28;20233;-88
2023/09/10 04:17:43;;;;;;;7.25;6.72;;;;;;;;;;5005010;28;20231;-88
2023/09/10 04:20:09;;;;;;;6.28;5.88;;;;;;;;;;5009178;28;20220;-88
2023/09/10 04:22:35;;;;;;;7.10;6.47;;;;;;;;;;5025264;28;20302;-88
2023/09/10 04:25:00;;;;;;;6.97;6.47;;;;;;;;;;5013173;28;20219;-87
2023/09/10 04:27:26;;;;;;;6.50;5.80;;;;;;;;;;5014481;28;20720;-88
2023/09/10 04:29:54;;;;;;;5.93;5.53;;;;;;;;;;5030238;28;20289;-89
2023/09/10 04:32:20;;;;;;;6.82;5.72;;;;;;;;;;5016698;28;20230;-88
2023/09/10 04:34:45;;;;;;;5.63;5.22;;;;;;;;;;5032541;28;20216;-88
2023/09/10 04:37:11;;;;;;;5.80;5.30;;;;;;;;;;5006309;28;20668;-87
2023/09/10 04:39:37;;;;;;;6.78;6.18;;;;;;;;;;5004138;28;20599;-88
2023/09/10 04:42:03;;;;;;;6.43;5.95;;;;;;;;;;4993321;28;20231;-87
2023/09/10 04:44:31;;;;;;;5.85;5.40;;;;;;;;;;5009999;28;20286;-87
2023/09/10 04:46:57;;;;;;;6.95;5.75;;;;;;;;;;5018119;28;20219;-88
2023/09/10 04:49:23;;;;;;;5.50;5.10;;;;;;;;;;5022996;28;20767;-86
2023/09/10 04:51:51;;;;;;;6.05;5.55;;;;;;;;;;4992281;28;20677;-88
2023/09/10 04:54:21;;;;;;;6.28;5.82;;;;;;;;;;5030919;28;20285;-88
2023/09/10 04:56:53;;;;;;;8.75;5.97;;;;;;;;;;4999279;28;20215;-88
2023/09/10 04:59:20;;;;;;;6.30;5.80;;;;;;;;;;5014948;28;20234;-88
2023/09/10 05:01:46;;;;;;;6.40;5.90;;;;;;;;;;5005335;28;20212;-87
2023/09/10 05:04:14;;;;;;;7.28;6.78;;;;;;;;;;4994506;28;20598;-86
2023/09/10 05:06:42;;;;;;;7.38;6.78;;;;;;;;;;5009396;28;20306;-87
2023/09/10 05:09:08;;;;;;;7.70;6.95;;;;;;;;;;5028896;28;20699;-87
2023/09/10 05:11:36;;;;;;;11.35;6.72;;;;;;;;;;5007924;28;20232;-88
2023/09/10 05:14:02;;;;;;;8.85;8.05;;;;;;;;;;4984663;28;20212;-88
2023/09/10 05:16:28;;;;;;;9.05;8.25;;;;;;;;;;5007665;28;20215;-88
2023/09/10 05:18:53;;;;;;;9.70;8.20;;;;;;;;;;5016920;28;20234;-88
2023/09/10 05:21:21;;;;;;;10.15;9.20;;;;;;;;;;4997839;28;20235;-88
2023/09/10 05:23:47;;;;;;;10.50;9.65;;;;;;;;;;5008493;28;20212;-87
2023/09/10 05:26:12;;;;;;;11.38;10.38;;;;;;;;;;5006658;28;20212;-88
2023/09/10 05:28:40;;;;;;;12.00;10.80;;;;;;;;;;4997575;28;20731;-88
2023/09/10 05:31:07;;;;;;;7.85;7.25;;;;;;;;;;5023550;28;20253;-88
2023/09/10 05:33:38;;;;;;;6.78;6.18;;;;;;;;;;5039239;28;20261;-87
2023/09/10 05:36:04;;;;;;;6.20;5.80;;;;;;;;;;5035973;28;20248;-87
2023/09/10 05:38:31;;;;;;;7.05;6.35;;;;;;;;;;5050176;28;20283;-88
2023/09/10 05:41:02;;;;;;;6.85;6.25;;;;;;;;;;5044135;28;20223;-88
2023/09/10 05:43:29;;;;;;;7.05;6.35;;;;;;;;;;5034704;28;20211;-88
2023/09/10 05:45:55;;;;;;;7.32;6.78;;;;;;;;;;5016078;28;20208;-88
2023/09/10 05:48:23;;;;;;;8.70;7.97;;;;;;;;;;5013430;28;20270;-88
2023/09/10 05:50:49;;;;;;;10.68;9.00;;;;;;;;;;5043692;28;20215;-88
2023/09/10 05:53:15;;;;;;;9.98;9.07;;;;;;;;;;5016805;28;20284;-88
2023/09/10 05:55:41;;;;;;;9.48;8.52;;;;;;;;;;5014018;28;20215;-89
2023/09/10 05:58:07;;;;;;;10.90;9.90;;;;;;;;;;5014964;28;20220;-89
2023/09/10 06:00:35;;;;;;;9.50;8.77;;;;;;;;;;5016471;28;20302;-88
2023/09/10 06:03:01;;;;;;;10.52;8.45;;;;;;;;;;5015703;28;20236;-88
2023/09/10 06:05:27;;;;;;;9.52;8.45;;;;;;;;;;5013389;28;20294;-88
2023/09/10 06:07:52;;;;;;;9.95;9.10;;;;;;;;;;5032358;28;20231;-88
2023/09/10 06:10:20;;;;;;;11.68;10.68;;;;;;;;;;5017581;28;20623;-88
2023/09/10 06:12:50;;;;;;;12.82;11.48;;;;;;;;;;5006535;28;20295;-88
2023/09/10 06:15:16;;;;;;;13.85;12.35;;;;;;;;;;5022711;28;20232;-88
2023/09/10 06:17:42;;;;;;;14.80;13.13;;;;;;;;;;5016951;28;20227;-88
2023/09/10 06:20:08;;;;;;;15.88;14.38;;;;;;;;;;5022777;28;20952;-89
2023/09/10 06:22:34;;;;;;;23.63;16.23;;;;;;;;;;5012372;28;20215;-88
2023/09/10 06:25:02;;;;;;;29.67;20.42;;;;;;;;;;5022641;28;20219;-88
2023/09/10 06:27:28;;;;;;;27.45;20.50;;;;;;;;;;5010250;28;20224;-89
2023/09/10 06:29:53;;;;;;;56.25;22.05;;;;;;;;;;5017042;28;20219;-88
2023/09/10 06:32:19;;;;;;;74.80;24.58;;;;;;;;;;4986227;28;20224;-88
2023/09/10 06:34:44;;;;;;;75.75;27.38;;;;;;;;;;5004297;28;20208;-88
2023/09/10 06:37:10;;;;;;;83.15;28.80;;;;;;;;;;5009164;28;20222;-88
2023/09/10 06:39:38;;;;;;;50.28;29.77;;;;;;;;;;5021604;28;20222;-89
2023/09/10 06:42:09;;;;;;;50.15;28.60;;;;;;;;;;5008131;28;20700;-88
2023/09/10 06:44:43;;;;;;;39.63;30.75;;;;;;;;;;5025786;28;20303;-88
2023/09/10 06:47:09;;;;;;;46.95;34.95;;;;;;;;;;5029603;28;20211;-87
2023/09/10 06:49:35;;;;;;;43.28;39.08;;;;;;;;;;5006698;28;20917;-88
2023/09/10 06:52:04;;;;;;;41.67;37.65;;;;;;;;;;5025007;28;20608;-88
2023/09/10 06:54:31;;;;;;;52.85;47.17;;;;;;;;;;5028615;28;20712;-88
2023/09/10 06:56:58;;;;;;;53.25;48.45;;;;;;;;;;5025482;28;20295;-89
2023/09/10 06:59:24;;;;;;;51.60;46.53;;;;;;;;;;5009187;28;20239;-88
2023/09/10 07:01:52;;;;;;;52.60;47.78;;;;;;;;;;5007730;28;20480;-88
2023/09/10 07:04:21;;;;;;;53.25;48.45;;;;;;;;;;5026402;28;20216;-88
2023/09/10 07:06:48;;;;;;;52.95;48.13;;;;;;;;;;5026285;28;20312;-89
2023/09/10 07:09:21;;;;;;;51.20;46.63;;;;;;;;;;4991327;28;20320;-89
2023/09/10 07:11:46;;;;;;;49.45;45.15;;;;;;;;;;4989857;28;20228;-88
2023/09/10 07:14:12;;;;;;;52.95;48.15;;;;;;;;;;5013792;28;20207;-89
2023/09/10 07:16:40;;;;;;;52.17;47.47;;;;;;;;;;5016297;28;20230;-89
2023/09/10 07:19:05;;;;;;;56.90;49.60;;;;;;;;;;5007992;28;20216;-89
2023/09/10 07:21:31;;;;;;;51.50;46.88;;;;;;;;;;5000700;28;20228;-88
2023/09/10 07:23:57;;;;;;;50.40;45.78;;;;;;;;;;5018266;28;21141;-89
2023/09/10 07:26:23;;;;;;;54.75;49.10;;;;;;;;;;5022499;28;21090;-88
2023/09/10 07:28:48;;;;;;;54.58;49.20;;;;;;;;;;5031197;28;20245;-88
2023/09/10 07:31:14;;;;;;;52.95;48.20;;;;;;;;;;5004915;28;20684;-88
2023/09/10 07:33:39;;;;;;;53.08;48.33;;;;;;;;;;5013490;28;20212;-88
2023/09/10 07:36:05;;;;;;;51.60;46.90;;;;;;;;;;5019066;28;20242;-88
2023/09/10 07:38:31;;;;;;;53.28;48.08;;;;;;;;;;5017727;28;20357;-90
2023/09/10 07:40:57;;;;;;;50.80;46.03;;;;;;;;;;5022260;28;20236;-89
2023/09/10 07:43:26;;;;;;;52.97;47.92;;;;;;;;;;5006013;28;20735;-91
2023/09/10 07:45:51;;;;;;;52.08;47.28;;;;;;;;;;5005073;28;20298;-89
2023/09/10 07:48:18;;;;;;;49.45;44.72;;;;;;;;;;4994675;28;20235;-89
2023/09/10 07:50:53;;;;;;;51.38;46.50;;;;;;;;;;5009461;28;20239;-89
2023/09/10 07:53:18;;;;;;;49.88;45.22;;;;;;;;;;5032233;28;20309;-89
2023/09/10 07:55:44;;;;;;;46.40;42.28;;;;;;;;;;5018175;28;20738;-87
2023/09/10 07:58:09;;;;;;;46.83;42.60;;;;;;;;;;5015945;28;20330;-89
2023/09/10 08:00:36;;;;;;;51.58;46.65;;;;;;;;;;4999315;28;20256;-87
2023/09/10 08:03:03;;;;;;;50.35;45.38;;;;;;;;;;5034389;28;20219;-89
2023/09/10 08:05:29;;;;;;;51.28;46.33;;;;;;;;;;5018808;28;20288;-87
2023/09/10 08:07:54;;;;;;;46.70;42.65;;;;;;;;;;5016966;28;20212;-89
2023/09/10 08:10:20;;;;;;;47.75;43.22;;;;;;;;;;5029538;28;20307;-90
2023/09/10 08:12:46;;;;;;;47.55;43.25;;;;;;;;;;5001044;28;20220;-88
2023/09/10 08:15:11;;;;;;;48.28;43.78;;;;;;;;;;5001835;28;20242;-92
2023/09/10 08:17:37;;;;;;;47.25;42.53;;;;;;;;;;5025917;28;20226;-87
2023/09/10 08:22:34;;;;;;;44.40;40.28;;;;;;;;;;5098886;28;20222;-76
2023/09/10 08:24:59;;;;;;;43.67;39.53;;;;;;;;;;5082072;28;20274;-77
2023/09/10 08:27:28;;;;;;;43.47;39.63;;;;;;;;;;5100495;28;20221;-77
2023/09/10 08:29:53;;;;;;;41.53;37.72;;;;;;;;;;5072032;28;20279;-77
2023/09/10 08:32:25;;;;;;;43.30;39.22;;;;;;;;;;5081736;28;20218;-77
2023/09/10 08:34:53;;;;;;;42.08;38.17;;;;;;;;;;5065655;28;20237;-76
2023/09/10 08:37:21;;;;;;;38.78;35.20;;;;;;;;;;5082407;28;20213;-77
2023/09/10 08:39:51;;;;;;;42.70;38.53;;;;;;;;;;5100749;28;20251;-76
2023/09/10 08:42:21;;;;;;;41.42;37.53;;;;;;;;;;5067829;28;20218;-77
2023/09/10 08:44:58;;;;;;;39.72;35.92;;;;;;;;;;5102351;28;20213;-76
2023/09/10 08:47:25;;;;;;;41.00;36.95;;;;;;;;;;5068677;28;20686;-76
2023/09/10 08:49:55;;;;;;;38.10;34.47;;;;;;;;;;5083806;28;20228;-76
2023/09/10 08:52:28;;;;;;;36.00;32.67;;;;;;;;;;5088941;28;20699;-74
2023/09/10 08:54:55;;;;;;;35.88;32.50;;;;;;;;;;5072679;28;20222;-76
2023/09/10 08:57:23;;;;;;;32.67;29.58;;;;;;;;;;5064672;28;20221;-76
2023/09/10 08:59:49;;;;;;;29.88;27.17;;;;;;;;;;5086691;28;20230;-75
2023/09/10 09:02:14;;;;;;;29.05;26.30;;;;;;;;;;5085999;28;20232;-75
2023/09/10 09:04:40;;;;;;;27.55;25.00;;;;;;;;;;5063162;28;20751;-76
2023/09/10 09:07:10;;;;;;;26.58;24.27;;;;;;;;;;5069923;28;20218;-76
2023/09/10 09:09:41;;;;;;;23.65;21.52;;;;;;;;;;5073695;28;20249;-74
2023/09/10 09:12:15;;;;;;;23.88;21.60;;;;;;;;;;5069429;28;20282;-76
2023/09/10 09:14:43;;;;;;;22.75;20.75;;;;;;;;;;5098535;28;20312;-75
2023/09/10 09:17:12;;;;;;;21.33;19.30;;;;;;;;;;5080484;28;20572;-77
2023/09/10 09:19:40;;;;;;;20.58;18.77;;;;;;;;;;5080254;28;20599;-76
2023/09/10 09:22:06;;;;;;;17.58;15.98;;;;;;;;;;5056382;28;20245;-76
2023/09/10 09:24:31;;;;;;;14.32;13.13;;;;;;;;;;5063404;28;20228;-77
2023/09/10 09:27:00;;;;;;;13.68;12.45;;;;;;;;;;5066659;28;20230;-76
2023/09/10 09:29:25;;;;;;;13.13;12.00;;;;;;;;;;5095400;28;20217;-76
2023/09/10 09:31:56;;;;;;;14.98;13.50;;;;;;;;;;5070631;28;20603;-75
2023/09/10 09:34:23;;;;;;;14.65;13.48;;;;;;;;;;5078635;28;20225;-77
2023/09/10 09:36:52;;;;;;;12.95;11.65;;;;;;;;;;5089491;28;20216;-76
2023/09/10 09:39:22;;;;;;;15.13;13.50;;;;;;;;;;5090037;28;20230;-76
2023/09/10 09:41:55;;;;;;;11.90;10.90;;;;;;;;;;5085544;28;20224;-76
2023/09/10 09:44:21;;;;;;;11.18;10.18;;;;;;;;;;5067798;28;20300;-76
2023/09/10 09:46:49;;;;;;;11.82;10.82;;;;;;;;;;5083347;28;20839;-76
2023/09/10 09:49:17;;;;;;;11.82;10.77;;;;;;;;;;5088805;28;20225;-77
2023/09/10 09:51:42;;;;;;;9.77;9.00;;;;;;;;;;5071596;28;20296;-75
2023/09/10 09:54:10;;;;;;;10.15;9.32;;;;;;;;;;5065156;28;20216;-77
2023/09/10 09:56:38;;;;;;;8.68;7.97;;;;;;;;;;5071688;28;20220;-77
2023/09/10 09:59:06;;;;;;;8.75;7.95;;;;;;;;;;5098004;28;20210;-76
2023/09/10 10:01:34;;;;;;;11.63;10.63;;;;;;;;;;5072448;28;20304;-76
2023/09/10 10:03:59;;;;;;;10.13;9.32;;;;;;;;;;5096978;28;20225;-77
2023/09/10 10:06:25;;;;;;;9.73;8.82;;;;;;;;;;5056562;28;20205;-76
2023/09/10 10:08:50;;;;;;;10.25;9.38;;;;;;;;;;5086070;28;20218;-76
2023/09/10 10:11:31;;;;;;;9.60;8.73;;;;;;;;;;5082075;28;20214;-76
2023/09/10 10:14:04;;;;;;;10.02;9.13;;;;;;;;;;5071705;28;20221;-77
2023/09/10 10:16:32;;;;;;;10.43;9.52;;;;;;;;;;5080827;28;20312;-76
2023/09/10 10:19:00;;;;;;;9.88;8.98;;;;;;;;;;5097075;28;20214;-76
2023/09/10 10:21:28;;;;;;;7.63;7.03;;;;;;;;;;5097606;28;20253;-77
2023/09/10 10:23:56;;;;;;;6.72;6.18;;;;;;;;;;5088391;28;20788;-77
2023/09/10 10:26:24;;;;;;;5.78;5.32;;;;;;;;;;5081478;28;20287;-77
2023/09/10 10:28:52;;;;;;;6.60;6.10;;;;;;;;;;5067041;28;20225;-77
2023/09/10 10:31:25;;;;;;;3.60;3.30;;;;;;;;;;5099278;28;20307;-77
2023/09/10 10:34:08;;;;;;;4.75;4.35;;;;;;;;;;5067461;28;20217;-78
2023/09/10 10:36:55;;;;;;;5.32;4.93;;;;;;;;;;5083437;28;20217;-76
2023/09/10 10:39:33;;;;;;;5.68;5.18;;;;;;;;;;5105372;28;20254;-76
2023/09/10 10:42:03;;;;;;;4.95;4.45;;;;;;;;;;5064857;28;20228;-76
2023/09/10 10:44:38;;;;;;;4.85;4.45;;;;;;;;;;5082892;28;20228;-75
2023/09/10 10:47:29;;;;;;;4.65;4.32;;;;;;;;;;5061861;28;20550;-76
2023/09/10 10:49:57;;;;;;;4.93;3.78;;;;;;;;;;5063802;28;20351;-76
2023/09/10 10:52:32;;;;;;;4.22;3.83;;;;;;;;;;5083561;28;20222;-77
2023/09/10 10:55:03;;;;;;;3.97;3.67;;;;;;;;;;5080480;28;20229;-77
2023/09/10 10:57:31;;;;;;;3.30;3.00;;;;;;;;;;5088579;28;20227;-75
2023/09/10 10:59:56;;;;;;;4.40;4.10;;;;;;;;;;5096589;28;20754;-77
2023/09/10 11:02:27;;;;;;;3.80;3.50;;;;;;;;;;5055797;28;20251;-76
2023/09/10 11:05:03;;;;;;;3.88;3.55;;;;;;;;;;5099262;28;20304;-76
2023/09/10 11:07:30;;;;;;;3.60;3.20;;;;;;;;;;5080901;28;20217;-75
2023/09/10 11:09:59;;;;;;;3.70;3.40;;;;;;;;;;5056805;28;20697;-75
2023/09/10 11:12:25;;;;;;;3.80;3.50;;;;;;;;;;5067629;28;20233;-75
2023/09/10 11:14:59;;;;;;;4.15;3.50;;;;;;;;;;5079161;28;20263;-75
2023/09/10 11:17:35;;;;;;;3.20;2.90;;;;;;;;;;5082660;28;20218;-77
2023/09/10 11:20:03;;;;;;;3.38;3.15;;;;;;;;;;5053635;28;20789;-76
2023/09/10 11:23:03;;;;;;;5.57;2.83;;;;;;;;;;5069895;28;20217;-77
2023/09/10 11:25:33;;;;;;;2.90;2.70;;;;;;;;;;5082759;28;20221;-77
2023/09/10 11:28:02;;;;;;;3.70;3.40;;;;;;;;;;5052484;28;20460;-75
2023/09/10 11:30:27;;;;;;;3.15;2.95;;;;;;;;;;5068116;28;20224;-74
2023/09/10 11:33:30;;;;;;;3.30;3.00;;;;;;;;;;5096339;28;20214;-74
2023/09/10 11:35:58;;;;;;;3.05;2.85;;;;;;;;;;5069597;28;20737;-74
2023/09/10 11:38:27;;;;;;;3.00;2.80;;;;;;;;;;5066324;28;20239;-74
2023/09/10 11:40:53;;;;;;;3.45;2.55;;;;;;;;;;5083811;28;20614;-73
2023/09/10 11:43:18;;;;;;;2.20;2.10;;;;;;;;;;5077958;28;20232;-75
2023/09/10 11:45:44;;;;;;;3.10;2.50;;;;;;;;;;5065783;28;20213;-76
2023/09/10 11:48:14;;;;;;;5.07;2.40;;;;;;;;;;5072501;28;20226;-75
2023/09/10 11:50:40;;;;;;;2.38;2.17;;;;;;;;;;5063072;28;20270;-76
2023/09/10 11:53:05;;;;;;;2.03;1.92;;;;;;;;;;5079811;28;20254;-75
2023/09/10 11:55:33;;;;;;;2.30;2.15;;;;;;;;;;5094658;28;20221;-75
2023/09/10 11:57:59;;;;;;;2.58;2.38;;;;;;;;;;5081649;28;20214;-76
2023/09/10 12:00:24;;;;;;;2.67;2.47;;;;;;;;;;5066786;28;20558;-75
2023/09/10 12:02:52;;;;;;;2.17;2.00;;;;;;;;;;5085050;28;20222;-74
2023/09/10 12:05:18;;;;;;;2.30;2.08;;;;;;;;;;5099991;28;20213;-75
2023/09/10 12:07:46;;;;;;;2.63;2.17;;;;;;;;;;5071218;28;20608;-75
2023/09/10 12:10:14;;;;;;;2.00;1.90;;;;;;;;;;5072003;28;20218;-75
2023/09/10 12:12:39;;;;;;;2.30;2.10;;;;;;;;;;5099822;28;20594;-75
2023/09/10 12:15:10;;;;;;;1.92;1.83;;;;;;;;;;5072416;28;20213;-75
2023/09/10 12:17:38;;;;;;;2.38;2.20;;;;;;;;;;5099802;28;20705;-74
2023/09/10 12:20:08;;;;;;;2.35;2.08;;;;;;;;;;5082482;28;20243;-75
2023/09/10 12:22:33;;;;;;;2.50;2.30;;;;;;;;;;5101610;28;20229;-75
2023/09/10 12:25:01;;;;;;;2.00;1.90;;;;;;;;;;5050111;28;20217;-75
2023/09/10 12:27:29;;;;;;;2.47;2.38;;;;;;;;;;5072559;28;20210;-75
2023/09/10 12:29:57;;;;;;;2.13;2.03;;;;;;;;;;5084549;28;20278;-75
2023/09/10 12:32:25;;;;;;;2.03;1.92;;;;;;;;;;5064788;28;20217;-74
2023/09/10 12:34:52;;;;;;;2.33;2.13;;;;;;;;;;5067377;28;20241;-75
2023/09/10 12:37:20;;;;;;;2.55;2.03;;;;;;;;;;5074244;28;20221;-74
2023/09/10 12:39:48;;;;;;;2.28;2.05;;;;;;;;;;5085155;28;20220;-74
2023/09/10 12:42:18;;;;;;;2.22;2.10;;;;;;;;;;5073753;28;20235;-75
2023/09/10 12:44:44;;;;;;;2.90;2.67;;;;;;;;;;5076445;28;20217;-73
2023/09/10 12:47:14;;;;;;;2.42;2.20;;;;;;;;;;5098560;28;20751;-73
2023/09/10 12:49:42;;;;;;;2.20;2.00;;;;;;;;;;5083691;27;20222;-73
2023/09/10 12:52:09;;;;;;;5.22;3.60;;;;;;;;;;5098901;28;20231;-74
2023/09/10 12:54:35;;;;;;;4.05;3.75;;;;;;;;;;5084185;28;20225;-75
2023/09/10 12:57:04;;;;;;;2.15;2.05;;;;;;;;;;5101117;28;20754;-74
2023/09/10 12:59:30;;;;;;;2.30;2.20;;;;;;;;;;5074401;28;20232;-75
2023/09/10 13:01:58;;;;;;;2.85;2.65;;;;;;;;;;5083656;28;20214;-73
2023/09/10 13:04:23;;;;;;;3.05;2.75;;;;;;;;;;5089844;28;20210;-74
2023/09/10 13:06:49;;;;;;;2.65;2.30;;;;;;;;;;5098306;28;20241;-74
2023/09/10 13:09:21;;;;;;;2.40;2.20;;;;;;;;;;5082988;28;20221;-74
2023/09/10 13:11:49;;;;;;;2.95;2.40;;;;;;;;;;5067466;28;20222;-74
2023/09/10 13:14:15;;;;;;;2.90;2.70;;;;;;;;;;5081154;28;20210;-75
2023/09/10 13:16:45;;;;;;;2.85;2.65;;;;;;;;;;5103409;28;20673;-74
2023/09/10 13:19:12;;;;;;;2.60;2.40;;;;;;;;;;5081294;28;20467;-74
2023/09/10 13:21:40;;;;;;;3.10;2.90;;;;;;;;;;5084256;28;20312;-75
2023/09/10 13:24:06;;;;;;;2.63;2.42;;;;;;;;;;5065963;27;20674;-74
2023/09/10 13:26:36;;;;;;;2.70;2.50;;;;;;;;;;5088344;28;20703;-74
2023/09/10 13:29:04;;;;;;;2.97;2.70;;;;;;;;;;5066755;28;20214;-74
2023/09/10 13:31:32;;;;;;;2.42;2.22;;;;;;;;;;5065560;28;20281;-75
2023/09/10 13:33:58;;;;;;;3.05;2.72;;;;;;;;;;5071425;28;20304;-74
2023/09/10 13:36:28;;;;;;;2.78;2.58;;;;;;;;;;5050659;28;20217;-77
2023/09/10 13:38:53;;;;;;;2.50;2.30;;;;;;;;;;5079972;28;20359;-74
2023/09/10 13:41:19;;;;;;;2.55;2.40;;;;;;;;;;5098627;28;20247;-73
2023/09/10 13:43:44;;;;;;;4.05;3.58;;;;;;;;;;5068566;28;20226;-75
2023/09/10 13:46:10;;;;;;;3.10;2.90;;;;;;;;;;5065353;28;20205;-74
2023/09/10 13:48:35;;;;;;;3.75;3.03;;;;;;;;;;5063619;28;20213;-74
2023/09/10 13:51:03;;;;;;;3.30;3.10;;;;;;;;;;5080249;28;20218;-74
2023/09/10 13:53:41;;;;;;;3.13;2.92;;;;;;;;;;5050851;28;20825;-74
2023/09/10 13:56:06;;;;;;;2.70;2.50;;;;;;;;;;5069924;28;20217;-73
2023/09/10 13:58:37;;;;;;;2.55;2.35;;;;;;;;;;5087881;28;20643;-74
2023/09/10 14:01:07;;;;;;;3.40;3.10;;;;;;;;;;5048729;28;20256;-74
2023/09/10 14:03:35;;;;;;;4.05;2.92;;;;;;;;;;5088707;28;20225;-74
2023/09/10 14:06:04;;;;;;;4.90;2.97;;;;;;;;;;5096478;28;20213;-74
2023/09/10 14:08:29;;;;;;;3.70;3.40;;;;;;;;;;5056229;28;20221;-74
2023/09/10 14:10:55;;;;;;;4.10;3.80;;;;;;;;;;5068662;28;20224;-73
2023/09/10 14:13:20;;;;;;;3.65;3.35;;;;;;;;;;5100673;28;20221;-75
2023/09/10 14:15:46;;;;;;;3.40;3.20;;;;;;;;;;5055856;28;20218;-76
2023/09/10 14:18:12;;;;;;;3.78;3.58;;;;;;;;;;5088191;28;20290;-79
2023/09/10 14:20:42;;;;;;;4.10;3.70;;;;;;;;;;5084443;28;20241;-77
2023/09/10 14:23:09;;;;;;;4.40;4.00;;;;;;;;;;5100799;28;20221;-76
2023/09/10 14:25:35;;;;;;;4.20;3.90;;;;;;;;;;5082628;28;20213;-76
2023/09/10 14:28:03;;;;;;;4.65;4.32;;;;;;;;;;5082682;28;21142;-76
2023/09/10 14:30:31;;;;;;;4.57;4.00;;;;;;;;;;5095370;28;20647;-76
2023/09/10 14:33:01;;;;;;;4.43;4.03;;;;;;;;;;5064437;28;20748;-75
2023/09/10 14:35:29;;;;;;;3.95;3.65;;;;;;;;;;5078294;28;20209;-76
2023/09/10 14:37:57;;;;;;;3.75;3.47;;;;;;;;;;5105802;28;20202;-76
2023/09/10 14:40:22;;;;;;;4.45;3.90;;;;;;;;;;5066225;28;20691;-77
2023/09/10 14:42:51;;;;;;;4.10;3.80;;;;;;;;;;5064373;28;20226;-80
2023/09/10 14:45:17;;;;;;;3.92;3.63;;;;;;;;;;5079311;28;20303;-76